Tropical Cyclones
[Index]
Main Index Home Page Stock Weather Photos Extreme Storms Discussion Storm News and Storm Chasing Reports Tropical Cyclones / Hurricanes / Typhoons Weather Data and Links Wild Fires / Bushfires Weather Observation Techniques Weather Picture Catalogue Tornado Pictures and Reports Stock Video Footage and DVDs for sale
Season 1997-1998 Tropical Cyclone OSEA Track Map
Season 1997-1998 Summaries: [BoM-AU] [JTWC-AU] [JTWC-SIO] [JTWC-SPAC] [JTWC-SH]
<<- Previous TC | JTWC 1997-1998 Season | Next TC ->>

click for intensity scale information  Lat/long Grid: Show Hide

 Date Labels: Show Hide

Joint Typhoon Warning Centre Cyclone Data

Name: OSEA

21 Nov 1997 18:00 UTC to 27 Nov 1997 06:00 UTC

    date/time    lat    long     hPa   cat  kts
1997-11-21 18    9.2   156.7W                 20          
1997-11-22 00    9.5   156.5W                 30          
1997-11-22 06    9.7   156.3W                 30          
1997-11-22 12    9.9   156.2W                 30          
1997-11-22 18   10.0   156.3W                 30          
1997-11-23 00    9.9   156.7W                 30          
1997-11-23 06    9.9   157.1W                 30          
1997-11-23 12   10.1   157.3W                 35          
1997-11-23 18   10.7   157.5W                 35          
1997-11-24 00   11.6   157.7W                 35          
1997-11-24 06   12.9   157.7W                 35          
1997-11-24 12   13.5   157.2W           2     55          
1997-11-24 18   13.8   156.4W           2     55          
1997-11-25 00   13.9   155.5W           2     55          
1997-11-25 06   14.2   154.6W           2     65          
1997-11-25 12   14.7   153.9W           2     65          
1997-11-25 18   15.3   153.2W           3     75          
1997-11-26 00   16.2   152.5W           3     75          
1997-11-26 06   17.3   151.9W           3     90          
1997-11-26 12   18.2   151.4W           3     90          
1997-11-26 18   18.9   150.8W           3     75          
1997-11-27 00   19.7   150.2W           2     55          
1997-11-27 06   20.3   149.4W                 35          
Winds are 1-min average.

Tropical cyclone tracks developed by Michael Bath using data from the Joint Typhoon Warning Centre Best Tracks and Google Maps.


[Australian Severe Weather index] [Copyright Notice] [Email Contacts] [Search This Site] [Privacy Policy]
Document: tropical_cyclone_osea.htm Updated: 18 September 2016